Bennington, Kansas
Current Conditions -  °F | °C
As of 10:53 AM on Wednesday 22 Oct 2014 (Local Time) from KSLN Reporting Station
Clear Clear  
Wind Chill: 72°   Ceiling: Unl
Heat Index: 72°   Visibility: 10mi
Dew Point: 56°   Wind: 15mph
Humidity: 57%   Direction: 180°S
Pressure: 30.1"   Gusts: NA
Location:  39.03°N, 97.59°W
Report Text: KSLN 221553Z 18013KT 10SM CLR 22/13 A3010 RMK AO2 SLP182 T02220133
Loading
Personal Weather Stations






























Interactive Weather Map
Tropical Storm Tracking
New forecast layout! Learn more

10-Day Weather Forecast

Advertisements
Track Severe Weather on mobile